createdAt,value
2023-03-11T00:01:11.814Z,1.15
2023-03-11T00:03:38.506Z,1.83
2023-03-11T00:06:05.357Z,1.52
2023-03-11T00:08:31.963Z,1.50
2023-03-11T00:11:00.579Z,1.88
2023-03-11T00:13:28.953Z,1.30
2023-03-11T00:15:56.582Z,4.07
2023-03-11T00:18:28.005Z,1.20
2023-03-11T00:20:56.196Z,1.23
2023-03-11T00:23:23.759Z,0.95
2023-03-11T00:25:50.789Z,1.63
2023-03-11T00:28:17.872Z,2.08
2023-03-11T00:30:46.105Z,1.80
2023-03-11T00:33:15.043Z,1.95
2023-03-11T00:35:42.659Z,5.38
2023-03-11T00:38:13.609Z,1.38
2023-03-11T00:40:40.431Z,2.05
2023-03-11T00:43:07.105Z,2.13
2023-03-11T00:45:33.911Z,1.95
2023-03-11T00:48:00.655Z,2.00
2023-03-11T00:50:30.717Z,2.05
2023-03-11T00:52:57.868Z,2.50
2023-03-11T00:55:27.562Z,1.88
2023-03-11T00:57:55.640Z,2.00
2023-03-11T01:00:24.819Z,2.38
2023-03-11T01:02:53.038Z,2.28
2023-03-11T01:05:21.807Z,2.22
2023-03-11T01:07:49.113Z,2.15
2023-03-11T01:10:17.180Z,2.28
2023-03-11T01:12:44.028Z,1.83
2023-03-11T01:15:18.854Z,2.17
2023-03-11T01:17:45.639Z,2.03
2023-03-11T01:20:13.037Z,2.30
2023-03-11T01:22:39.637Z,2.10
2023-03-11T01:25:06.580Z,2.20
2023-03-11T01:27:33.120Z,2.20
2023-03-11T01:29:59.705Z,1.20
2023-03-11T01:32:26.297Z,2.05
2023-03-11T01:34:52.824Z,2.38
2023-03-11T01:37:20.199Z,1.85
2023-03-11T01:39:46.741Z,1.75
2023-03-11T01:42:13.369Z,1.98
2023-03-11T01:44:40.026Z,1.85
2023-03-11T01:47:13.112Z,1.63
2023-03-11T01:49:43.567Z,2.45
2023-03-11T01:52:10.221Z,2.58
2023-03-11T01:54:41.677Z,2.13
2023-03-11T01:57:12.591Z,2.17
2023-03-11T01:59:48.761Z,2.00
2023-03-11T02:02:22.925Z,2.45
2023-03-11T02:04:50.906Z,2.60
2023-03-11T02:07:18.031Z,2.70
2023-03-11T02:09:44.782Z,2.75
2023-03-11T02:12:15.056Z,1.83
2023-03-11T02:14:46.239Z,2.95
2023-03-11T02:17:13.360Z,2.28
2023-03-11T02:20:06.236Z,3.05
2023-03-11T02:22:33.612Z,2.40
2023-03-11T02:25:09.379Z,2.33
2023-03-11T02:27:41.195Z,3.00
2023-03-11T02:30:11.074Z,3.10
2023-03-11T02:32:38.262Z,3.15
2023-03-11T02:35:06.821Z,2.75
2023-03-11T02:37:33.378Z,3.33
2023-03-11T02:40:33.214Z,3.42
2023-03-11T02:43:01.707Z,2.60
2023-03-11T02:45:29.976Z,2.92
2023-03-11T02:47:58.630Z,3.03
2023-03-11T02:50:27.851Z,2.72
2023-03-11T02:52:54.400Z,3.28
2023-03-11T02:55:21.641Z,2.50
2023-03-11T02:57:48.397Z,3.00
2023-03-11T03:00:16.735Z,3.17
2023-03-11T03:02:44.784Z,2.63
2023-03-11T03:05:12.407Z,2.80
2023-03-11T03:07:39.334Z,2.65
2023-03-11T03:10:08.391Z,2.55
2023-03-11T03:12:34.965Z,2.70
2023-03-11T03:15:01.452Z,3.00
2023-03-11T03:17:28.073Z,2.92
2023-03-11T03:19:54.645Z,2.83
2023-03-11T03:22:21.203Z,2.92
2023-03-11T03:24:47.886Z,2.90
2023-03-11T03:27:14.509Z,2.97
2023-03-11T03:29:41.032Z,4.18
2023-03-11T03:32:07.810Z,2.95
2023-03-11T03:34:34.420Z,3.60
2023-03-11T03:37:00.993Z,2.92
2023-03-11T03:39:30.113Z,4.32
2023-03-11T03:41:57.228Z,4.47
2023-03-11T03:44:23.947Z,4.65
2023-03-11T03:46:50.469Z,5.05
2023-03-11T03:49:17.051Z,5.07
2023-03-11T03:51:43.645Z,5.07
2023-03-11T03:54:10.139Z,4.60
2023-03-11T03:56:36.660Z,5.22
2023-03-11T03:59:03.615Z,5.57
2023-03-11T04:01:30.179Z,5.22
2023-03-11T04:03:56.896Z,5.95
2023-03-11T04:06:26.701Z,3.92
2023-03-11T04:11:20.869Z,5.53
2023-03-11T04:13:47.618Z,9.07
2023-03-11T04:16:19.805Z,6.13
2023-03-11T04:18:47.328Z,5.78
2023-03-11T04:21:14.028Z,6.35
2023-03-11T04:23:40.574Z,7.38
2023-03-11T04:26:07.115Z,6.38
2023-03-11T04:28:33.702Z,8.18
2023-03-11T04:31:00.285Z,6.50
2023-03-11T04:33:26.818Z,8.18
2023-03-11T04:35:53.514Z,7.25
2023-03-11T04:38:20.090Z,5.47
2023-03-11T04:40:46.708Z,6.68
2023-03-11T04:43:13.277Z,8.90
2023-03-11T04:45:40.700Z,7.20
2023-03-11T04:48:07.475Z,7.55
2023-03-11T04:50:34.050Z,6.95
2023-03-11T04:53:00.828Z,7.18
2023-03-11T04:55:27.366Z,7.35
2023-03-11T04:57:53.893Z,5.95
2023-03-11T05:00:24.744Z,5.90
2023-03-11T05:02:51.669Z,6.75
2023-03-11T05:05:19.592Z,7.10
2023-03-11T05:07:46.579Z,8.35
2023-03-11T05:10:13.984Z,7.00
2023-03-11T05:12:40.756Z,5.40
2023-03-11T05:15:07.705Z,8.88
2023-03-11T05:17:34.327Z,8.65
2023-03-11T05:20:00.856Z,7.20
2023-03-11T05:22:27.423Z,5.70
2023-03-11T05:24:53.998Z,6.97
2023-03-11T05:27:21.302Z,5.60
2023-03-11T05:29:47.940Z,7.53
2023-03-11T05:32:14.855Z,6.55
2023-03-11T05:34:41.597Z,4.43
2023-03-11T05:37:09.062Z,6.57
2023-03-11T05:39:37.668Z,6.35
2023-03-11T05:42:05.383Z,7.32
2023-03-11T05:44:32.905Z,5.45
2023-03-11T05:47:00.374Z,5.50
2023-03-11T05:49:27.413Z,5.95
2023-03-11T05:51:55.286Z,7.93
2023-03-11T05:54:23.346Z,5.10
2023-03-11T05:56:49.870Z,6.45
2023-03-11T05:59:17.720Z,6.30
2023-03-11T06:01:44.986Z,7.47
2023-03-11T06:04:11.986Z,9.50
2023-03-11T06:06:41.322Z,7.85
2023-03-11T06:09:12.877Z,8.65
2023-03-11T06:11:39.576Z,7.72
2023-03-11T06:14:06.162Z,9.65
2023-03-11T06:16:32.886Z,6.38
2023-03-11T06:19:02.576Z,9.98
2023-03-11T06:21:29.196Z,7.05
2023-03-11T06:23:55.729Z,8.90
2023-03-11T06:26:23.224Z,11.18
2023-03-11T06:28:51.706Z,9.68
2023-03-11T06:31:24.333Z,8.02
2023-03-11T06:33:51.531Z,9.70
2023-03-11T06:36:20.258Z,8.57
2023-03-11T06:38:47.076Z,9.85
2023-03-11T06:41:13.602Z,9.13
2023-03-11T06:43:40.161Z,9.60
2023-03-11T06:46:19.119Z,8.50
2023-03-11T06:48:46.368Z,10.07
2023-03-11T06:51:13.560Z,11.43
2023-03-11T06:53:40.430Z,10.27
2023-03-11T06:56:09.082Z,9.10
2023-03-11T06:58:37.745Z,7.97
2023-03-11T07:01:07.599Z,12.52
2023-03-11T07:03:34.530Z,8.98
2023-03-11T07:06:01.369Z,10.02
2023-03-11T07:08:28.584Z,10.63
2023-03-11T07:11:15.636Z,10.82
2023-03-11T07:13:42.604Z,9.18
2023-03-11T07:16:21.881Z,14.50
2023-03-11T07:18:50.944Z,9.80
2023-03-11T07:21:21.206Z,11.73
2023-03-11T07:23:49.855Z,9.77
2023-03-11T07:26:17.922Z,12.30
2023-03-11T07:28:44.845Z,13.10
2023-03-11T07:31:20.007Z,9.88
2023-03-11T07:33:47.103Z,11.23
2023-03-11T07:36:19.949Z,8.25
2023-03-11T07:38:47.106Z,10.55
2023-03-11T07:41:15.228Z,8.43
2023-03-11T07:43:42.913Z,10.43
2023-03-11T07:46:18.683Z,8.68
2023-03-11T07:48:45.881Z,13.82
2023-03-11T07:51:16.349Z,7.63
2023-03-11T07:53:43.319Z,10.15
2023-03-11T07:56:12.695Z,11.25
2023-03-11T07:58:40.352Z,8.50
2023-03-11T08:01:12.699Z,12.18
2023-03-11T08:03:39.578Z,8.05
2023-03-11T08:06:14.675Z,11.30
2023-03-11T08:08:42.006Z,12.27
2023-03-11T08:11:09.577Z,10.55
2023-03-11T08:13:36.348Z,11.85
2023-03-11T08:16:07.475Z,11.73
2023-03-11T08:18:34.683Z,8.70
2023-03-11T08:21:06.485Z,10.15
2023-03-11T08:23:33.739Z,8.52
2023-03-11T08:26:11.150Z,9.15
2023-03-11T08:28:37.827Z,9.32
2023-03-11T08:31:12.565Z,9.10
2023-03-11T08:33:39.132Z,10.75
2023-03-11T08:36:06.161Z,11.48
2023-03-11T08:38:33.023Z,12.18
2023-03-11T08:41:00.868Z,12.48
2023-03-11T08:43:27.728Z,9.32
2023-03-11T08:45:54.349Z,8.85
2023-03-11T08:48:20.878Z,9.18
2023-03-11T08:50:54.397Z,9.68
2023-03-11T08:53:22.538Z,9.82
2023-03-11T08:55:51.533Z,10.07
2023-03-11T08:58:19.104Z,10.40
2023-03-11T09:00:46.191Z,10.25
2023-03-11T09:03:13.545Z,9.90
2023-03-11T09:05:40.754Z,8.20
2023-03-11T09:08:07.375Z,11.98
2023-03-11T09:10:33.955Z,10.07
2023-03-11T09:13:00.493Z,8.75
2023-03-11T09:15:27.063Z,10.20
2023-03-11T09:17:54.323Z,9.55
2023-03-11T09:20:20.925Z,11.18
2023-03-11T09:22:47.637Z,8.90
2023-03-11T09:25:14.733Z,12.50
2023-03-11T09:27:41.532Z,9.63
2023-03-11T09:30:09.783Z,12.13
2023-03-11T09:32:36.430Z,8.55
2023-03-11T09:35:03.432Z,11.93
2023-03-11T09:37:30.390Z,7.70
2023-03-11T09:39:57.011Z,10.23
2023-03-11T09:42:41.135Z,10.65
2023-03-11T09:45:19.890Z,8.02
2023-03-11T09:48:13.340Z,8.52
2023-03-11T09:50:47.298Z,11.13
2023-03-11T09:53:34.383Z,9.50
2023-03-11T09:56:06.112Z,8.80
2023-03-11T09:59:08.205Z,9.93
2023-03-11T10:01:42.790Z,11.43
2023-03-11T10:04:33.096Z,14.95
2023-03-11T10:07:03.215Z,9.02
2023-03-11T10:09:41.126Z,10.73
2023-03-11T10:12:37.079Z,15.40
2023-03-11T10:15:40.560Z,11.43
2023-03-11T10:18:19.175Z,10.60
2023-03-11T10:21:04.661Z,9.48
2023-03-11T10:23:55.210Z,8.50
2023-03-11T10:26:25.997Z,6.35
2023-03-11T10:29:00.124Z,8.82
2023-03-11T10:32:03.778Z,11.55
2023-03-11T10:34:38.436Z,7.15
2023-03-11T10:37:11.426Z,10.70
2023-03-11T10:39:38.753Z,7.63
2023-03-11T10:42:10.181Z,9.65
2023-03-11T10:44:42.122Z,8.75
2023-03-11T10:47:34.996Z,8.20
2023-03-11T10:50:01.546Z,8.02
2023-03-11T10:52:28.136Z,10.32
2023-03-11T10:55:03.201Z,8.98
2023-03-11T10:57:34.352Z,9.15
2023-03-11T11:00:17.311Z,9.02
2023-03-11T11:02:58.270Z,6.90
2023-03-11T11:05:33.825Z,8.55
2023-03-11T11:08:13.704Z,10.05
2023-03-11T11:11:00.340Z,7.88
2023-03-11T11:13:34.350Z,11.80
2023-03-11T11:16:09.179Z,9.38
2023-03-11T11:18:42.199Z,9.25
2023-03-11T11:21:10.991Z,6.97
2023-03-11T11:23:42.332Z,8.32
2023-03-11T11:26:21.943Z,9.50
2023-03-11T11:29:12.315Z,4.57
2023-03-11T11:31:41.895Z,8.68
2023-03-11T11:34:32.632Z,7.30
2023-03-11T11:37:02.363Z,7.05
2023-03-11T11:41:57.252Z,5.82
2023-03-11T11:44:32.850Z,9.48
2023-03-11T11:47:13.631Z,6.40
2023-03-11T11:49:50.270Z,9.55
2023-03-11T11:52:22.678Z,7.00
2023-03-11T11:54:49.159Z,7.75
2023-03-11T11:57:18.023Z,7.55
2023-03-11T11:59:44.855Z,10.43
2023-03-11T12:02:34.670Z,5.88
2023-03-11T12:05:17.552Z,6.63
2023-03-11T12:08:00.190Z,6.10
2023-03-11T12:10:39.579Z,6.45
2023-03-11T12:13:34.038Z,8.20
2023-03-11T12:16:23.397Z,8.48
2023-03-11T12:18:58.393Z,6.47
2023-03-11T12:21:28.092Z,7.90
2023-03-11T12:26:47.074Z,5.25
2023-03-11T12:29:34.309Z,8.52
2023-03-11T12:32:02.454Z,5.07
2023-03-11T12:34:33.638Z,9.80
2023-03-11T12:37:04.497Z,7.68
2023-03-11T12:39:36.392Z,9.27
2023-03-11T12:42:11.955Z,6.88
2023-03-11T12:44:40.488Z,4.38
2023-03-11T12:47:13.222Z,5.05
2023-03-11T12:49:44.063Z,5.50
2023-03-11T12:52:13.659Z,8.07
2023-03-11T12:55:10.577Z,6.88
2023-03-11T12:57:44.292Z,3.03
2023-03-11T13:00:42.033Z,4.13
2023-03-11T13:03:46.090Z,4.25
2023-03-11T13:06:31.498Z,5.50
2023-03-11T13:08:59.268Z,6.80
2023-03-11T13:11:31.797Z,7.93
2023-03-11T13:14:17.231Z,7.85
2023-03-11T13:16:45.535Z,7.30
2023-03-11T13:19:49.081Z,9.85
2023-03-11T13:22:53.955Z,3.28
2023-03-11T13:25:30.163Z,7.05
2023-03-11T13:28:20.157Z,6.85
2023-03-11T13:31:24.401Z,6.15
2023-03-11T13:33:56.534Z,5.25
2023-03-11T13:36:29.184Z,4.97
2023-03-11T13:39:14.326Z,5.95
2023-03-11T13:41:44.570Z,6.22
2023-03-11T13:44:19.890Z,3.00
2023-03-11T13:46:53.021Z,7.93
2023-03-11T13:49:28.416Z,7.55
2023-03-11T13:51:57.023Z,8.25
2023-03-11T13:54:52.860Z,3.25
2023-03-11T13:57:32.406Z,5.72
2023-03-11T14:00:24.342Z,7.43
2023-03-11T14:02:56.103Z,5.20
2023-03-11T14:05:33.544Z,5.30
2023-03-11T14:08:23.521Z,5.88
2023-03-11T14:10:54.845Z,5.53
2023-03-11T14:13:23.169Z,5.18
2023-03-11T14:15:58.698Z,5.22
2023-03-11T14:18:32.429Z,7.03
2023-03-11T14:20:59.608Z,3.45
2023-03-11T14:23:30.302Z,5.07
2023-03-11T14:26:02.482Z,9.13
2023-03-11T14:28:33.152Z,5.78
2023-03-11T14:31:02.168Z,7.40
2023-03-11T14:33:28.843Z,9.05
2023-03-11T14:35:59.691Z,7.55
2023-03-11T14:38:29.616Z,6.90
2023-03-11T14:41:01.412Z,6.72
2023-03-11T14:43:39.574Z,5.22
2023-03-11T14:46:07.842Z,6.90
2023-03-11T14:48:40.189Z,5.07
2023-03-11T14:51:14.877Z,6.40
2023-03-11T14:53:51.851Z,5.53
2023-03-11T14:56:23.998Z,5.70
2023-03-11T14:59:15.060Z,5.50
2023-03-11T15:01:43.724Z,6.20
2023-03-11T15:04:35.194Z,3.88
2023-03-11T15:07:04.447Z,5.90
2023-03-11T15:09:31.852Z,8.20
2023-03-11T15:12:00.860Z,4.43
2023-03-11T15:14:27.330Z,5.22
2023-03-11T15:16:55.693Z,5.13
2023-03-11T15:19:28.075Z,3.95
2023-03-11T15:21:58.641Z,4.72
2023-03-11T15:24:31.384Z,6.45
2023-03-11T15:27:02.289Z,6.65
2023-03-11T15:29:30.312Z,3.80
2023-03-11T15:31:57.373Z,4.68
2023-03-11T15:34:30.621Z,5.97
2023-03-11T15:37:20.546Z,4.68
2023-03-11T15:39:51.039Z,5.35
2023-03-11T15:42:20.665Z,4.68
2023-03-11T15:45:16.479Z,6.53
2023-03-11T15:47:44.269Z,4.03
2023-03-11T15:50:37.202Z,5.32
2023-03-11T15:53:09.739Z,4.72
2023-03-11T15:55:37.230Z,6.30
2023-03-11T15:58:08.063Z,4.40
2023-03-11T16:00:36.694Z,6.35
2023-03-11T16:03:03.801Z,4.97
2023-03-11T16:05:30.438Z,5.25
2023-03-11T16:07:57.070Z,4.45
2023-03-11T16:10:25.721Z,4.45
2023-03-11T16:12:52.336Z,4.32
2023-03-11T16:15:24.958Z,6.68
2023-03-11T16:17:52.877Z,7.40
2023-03-11T16:20:21.970Z,11.10
2023-03-11T16:22:50.277Z,8.10
2023-03-11T16:25:24.960Z,5.68
2023-03-11T16:27:53.213Z,6.50
2023-03-11T16:30:20.912Z,4.45
2023-03-11T16:32:47.477Z,7.53
2023-03-11T16:35:14.285Z,5.47
2023-03-11T16:37:42.796Z,3.72
2023-03-11T16:40:28.946Z,3.72
2023-03-11T16:43:00.194Z,7.15
2023-03-11T16:45:27.262Z,5.63
2023-03-11T16:47:53.879Z,5.43
2023-03-11T16:50:21.014Z,5.07
2023-03-11T16:52:47.876Z,6.25
2023-03-11T16:55:14.495Z,6.50
2023-03-11T16:57:41.051Z,5.47
2023-03-11T17:00:09.871Z,4.88
2023-03-11T17:02:37.405Z,4.93
2023-03-11T17:05:05.815Z,6.55
2023-03-11T17:07:33.001Z,6.63
2023-03-11T17:10:00.861Z,5.90
2023-03-11T17:12:27.925Z,5.28
2023-03-11T17:14:55.105Z,6.50
2023-03-11T17:17:23.495Z,9.63
2023-03-11T17:19:50.107Z,6.70
2023-03-11T17:22:17.145Z,3.47
2023-03-11T17:24:43.818Z,8.57
2023-03-11T17:27:10.404Z,5.97
2023-03-11T17:29:39.027Z,8.85
2023-03-11T17:32:06.623Z,7.65
2023-03-11T17:34:33.192Z,8.23
2023-03-11T17:36:59.795Z,6.05
2023-03-11T17:39:26.369Z,4.97
2023-03-11T17:41:52.892Z,4.90
2023-03-11T17:44:19.427Z,8.68
2023-03-11T17:46:46.041Z,8.80
2023-03-11T17:49:14.787Z,6.88
2023-03-11T17:51:41.601Z,5.20
2023-03-11T17:54:09.586Z,7.95
2023-03-11T17:56:36.095Z,8.63
2023-03-11T17:59:02.611Z,10.43
2023-03-11T18:01:30.395Z,7.72
2023-03-11T18:03:57.147Z,6.18
2023-03-11T18:06:23.795Z,10.60
2023-03-11T18:08:51.481Z,5.03
2023-03-11T18:11:21.631Z,6.82
2023-03-11T18:13:48.655Z,6.60
2023-03-11T18:16:21.325Z,7.32
2023-03-11T18:18:48.736Z,5.45
2023-03-11T18:21:20.629Z,6.40
2023-03-11T18:23:47.702Z,6.30
2023-03-11T18:26:17.205Z,5.53
2023-03-11T18:28:44.102Z,5.88
2023-03-11T18:31:19.555Z,5.57
2023-03-11T18:33:57.155Z,7.75
2023-03-11T18:36:29.668Z,4.88
2023-03-11T18:38:58.092Z,6.13
2023-03-11T18:41:26.294Z,5.88
2023-03-11T18:43:54.504Z,6.97
2023-03-11T18:46:21.245Z,8.27
2023-03-11T18:48:47.817Z,7.75
2023-03-11T18:51:15.424Z,10.10
2023-03-11T18:53:42.987Z,6.32
2023-03-11T18:56:13.622Z,6.55
2023-03-11T18:58:40.409Z,7.20
2023-03-11T19:01:10.682Z,8.30
2023-03-11T19:03:38.310Z,11.55
2023-03-11T19:06:07.630Z,8.98
2023-03-11T19:08:38.246Z,5.00
2023-03-11T19:11:13.701Z,4.75
2023-03-11T19:13:46.973Z,9.07
2023-03-11T19:16:21.936Z,8.27
2023-03-11T19:18:48.937Z,12.00
2023-03-11T19:21:16.546Z,9.77
2023-03-11T19:23:47.451Z,9.27
2023-03-11T19:26:14.107Z,8.85
2023-03-11T19:28:40.984Z,6.47
2023-03-11T19:31:07.761Z,9.45
2023-03-11T19:33:34.701Z,6.93
2023-03-11T19:36:03.936Z,8.35
2023-03-11T19:38:33.620Z,9.00
2023-03-11T19:41:01.555Z,7.78
2023-03-11T19:43:29.913Z,10.93
2023-03-11T19:45:56.734Z,8.88
2023-03-11T19:48:23.634Z,7.88
2023-03-11T19:50:51.469Z,8.90
2023-03-11T19:53:19.183Z,5.22
2023-03-11T19:55:51.570Z,9.18
2023-03-11T19:58:18.482Z,5.65
2023-03-11T20:00:45.901Z,8.40
2023-03-11T20:03:14.293Z,9.65
2023-03-11T20:05:43.559Z,13.20
2023-03-11T20:08:11.450Z,17.90
2023-03-11T20:10:40.278Z,10.23
2023-03-11T20:13:07.780Z,8.02
2023-03-11T20:15:35.090Z,7.95
2023-03-11T20:18:04.935Z,12.48
2023-03-11T20:20:32.554Z,6.22
2023-03-11T20:22:59.499Z,6.95
2023-03-11T20:25:26.645Z,11.27
2023-03-11T20:27:53.715Z,10.07
2023-03-11T20:30:21.129Z,6.63
2023-03-11T20:32:48.781Z,9.77
2023-03-11T20:35:15.639Z,5.40
2023-03-11T20:37:43.269Z,11.50
2023-03-11T20:40:13.127Z,7.93
2023-03-11T20:42:42.409Z,5.85
2023-03-11T20:45:10.471Z,6.85
2023-03-11T20:47:39.764Z,13.30
2023-03-11T20:50:06.887Z,10.82
2023-03-11T20:52:35.804Z,6.40
2023-03-11T20:55:04.817Z,7.55
2023-03-11T20:57:32.819Z,5.25
2023-03-11T21:00:02.181Z,10.10
2023-03-11T21:02:30.918Z,5.93
2023-03-11T21:04:57.567Z,8.30
2023-03-11T21:07:24.354Z,9.15
2023-03-11T21:09:54.564Z,8.57
2023-03-11T21:12:22.084Z,7.65
2023-03-11T21:14:48.756Z,8.02
2023-03-11T21:17:15.671Z,5.28
2023-03-11T21:19:42.368Z,2.53
2023-03-11T21:22:11.760Z,7.90
2023-03-11T21:24:38.716Z,10.07
2023-03-11T21:27:05.306Z,6.50
2023-03-11T21:29:31.932Z,4.65
2023-03-11T21:32:01.190Z,8.73
2023-03-11T21:34:27.989Z,4.28
2023-03-11T21:36:54.686Z,3.92
2023-03-11T21:39:22.056Z,4.85
2023-03-11T21:41:48.807Z,8.60
2023-03-11T21:44:15.537Z,6.72
2023-03-11T21:46:42.307Z,5.47
2023-03-11T21:49:09.132Z,9.32
2023-03-11T21:51:35.856Z,9.43
2023-03-11T21:54:03.608Z,24.67
2023-03-11T21:56:30.409Z,14.85
2023-03-11T21:58:57.280Z,17.38
2023-03-11T22:01:23.920Z,17.27
2023-03-11T22:03:50.621Z,10.27
2023-03-11T22:06:17.414Z,13.30
2023-03-11T22:08:44.292Z,6.28
2023-03-11T22:11:18.395Z,10.18
2023-03-11T22:13:46.941Z,15.13
2023-03-11T22:16:14.141Z,6.22
2023-03-11T22:18:41.044Z,6.47
2023-03-11T22:21:10.005Z,4.95
2023-03-11T22:23:37.354Z,6.78
2023-03-11T22:26:04.029Z,10.82
2023-03-11T22:28:30.690Z,6.20
2023-03-11T22:30:57.423Z,11.55
2023-03-11T22:33:24.256Z,9.85
2023-03-11T22:35:53.716Z,9.43
2023-03-11T22:38:20.669Z,7.28
2023-03-11T22:40:47.475Z,10.50
2023-03-11T22:43:14.158Z,11.95
2023-03-11T22:45:40.843Z,12.88
2023-03-11T22:48:07.605Z,10.20
2023-03-11T22:50:34.945Z,10.32
2023-03-11T22:53:02.035Z,29.48
2023-03-11T22:55:28.586Z,44.22
2023-03-11T22:57:55.182Z,24.60
2023-03-11T23:00:22.606Z,12.45
2023-03-11T23:02:53.559Z,14.60
2023-03-11T23:05:20.689Z,24.33
2023-03-11T23:07:48.299Z,10.85
2023-03-11T23:10:19.082Z,11.25
2023-03-11T23:12:47.445Z,11.25
2023-03-11T23:15:17.071Z,10.43
2023-03-11T23:17:57.424Z,8.88
2023-03-11T23:20:24.095Z,9.13
2023-03-11T23:22:50.640Z,9.93
2023-03-11T23:25:17.281Z,8.93
2023-03-11T23:27:45.235Z,7.60
2023-03-11T23:30:14.449Z,6.70
2023-03-11T23:32:41.053Z,10.43
2023-03-11T23:35:08.002Z,6.45
2023-03-11T23:37:34.728Z,2.92
2023-03-11T23:40:01.308Z,10.05
2023-03-11T23:42:27.905Z,6.68
2023-03-11T23:44:54.472Z,3.35
2023-03-11T23:47:21.309Z,8.13
2023-03-11T23:49:47.848Z,7.38
2023-03-11T23:52:16.692Z,3.63
2023-03-11T23:54:45.593Z,7.97
2023-03-11T23:57:12.160Z,4.80
2023-03-11T23:59:38.676Z,5.45
